Time;durP1;ratioP1;P1;durP2;ratioP2;P2;SDS_P1;SDS_P2;PMS_P1;PMS_P2;Temp;Humidity;BMP_temperature;BMP_pressure;BME280_temperature;BME280_humidity;BME280_pressure;Samples;Min_cycle;Max_cycle;Signal;HPM_P1;HPM_P2
2022/04/11 00:01:30;;;;;;;;;2.00;2.00;;;;;19.06;30.77;101024.56;4973790;28;45422;-62
2022/04/11 00:03:56;;;;;;;;;3.00;3.00;;;;;19.03;30.85;101030.78;4974116;28;45411;-60
2022/04/11 00:06:21;;;;;;;;;2.00;2.00;;;;;19.04;30.93;101018.50;4973972;28;45504;-62
2022/04/11 00:08:47;;;;;;;;;3.00;2.00;;;;;19.02;30.70;101021.19;4973506;28;46664;-63
2022/04/11 00:11:12;;;;;;;;;3.00;3.00;;;;;19.03;30.78;101025.53;4973486;28;45492;-64
2022/04/11 00:13:38;;;;;;;;;2.00;2.00;;;;;19.01;30.81;101016.88;4973750;28;45571;-64
2022/04/11 00:16:03;;;;;;;;;2.00;2.00;;;;;19.00;31.24;101021.28;4973897;28;45520;-62
2022/04/11 00:18:29;;;;;;;;;2.75;2.75;;;;;19.00;30.90;101021.28;4973597;28;46137;-57
2022/04/11 00:20:54;;;;;;;;;2.25;2.00;;;;;18.99;31.17;101010.84;4973691;28;45358;-62
2022/04/11 00:23:19;;;;;;;;;2.00;2.00;;;;;18.98;30.80;101009.97;4974543;28;45688;-62
2022/04/11 00:25:45;;;;;;;;;3.00;3.00;;;;;18.98;30.98;101012.59;4976827;28;45645;-63
2022/04/11 00:28:10;;;;;;;;;4.00;3.00;;;;;18.99;30.97;101013.47;4974922;28;55003;-63
2022/04/11 00:30:35;;;;;;;;;2.25;2.25;;;;;18.98;31.30;101009.97;4976345;28;45380;-65
2022/04/11 00:33:01;;;;;;;;;2.00;2.00;;;;;18.97;30.83;100996.94;4976553;28;45806;-61
2022/04/11 00:35:27;;;;;;;;;2.00;2.00;;;;;18.98;30.82;100996.84;4959522;28;45558;-64
2022/04/11 00:37:52;;;;;;;;;3.00;2.00;;;;;18.97;30.99;100983.78;4976209;28;45769;-62
2022/04/11 00:40:19;;;;;;;;;3.00;2.00;;;;;18.95;31.23;100969.88;4976255;28;47903;-64
2022/04/11 00:42:48;;;;;;;;;2.00;2.00;;;;;18.96;30.71;100971.56;4976527;28;45399;-64
2022/04/11 00:45:14;;;;;;;;;2.00;2.00;;;;;18.95;31.17;100956.75;4976544;28;45235;-63
2022/04/11 00:47:39;;;;;;;;;2.50;2.50;;;;;18.95;30.89;100962.88;4976288;28;45172;-60
2022/04/11 00:50:10;;;;;;;;;2.00;2.00;;;;;18.95;30.93;100962.00;4976185;28;45319;-61
2022/04/11 00:52:42;;;;;;;;;2.75;2.75;;;;;18.93;31.13;100962.06;4976289;28;45699;-59
2022/04/11 00:55:08;;;;;;;;;3.00;2.75;;;;;18.92;31.00;100955.09;4976329;27;45265;-61
2022/04/11 00:57:33;;;;;;;;;2.25;2.25;;;;;18.92;30.90;100941.94;4975992;28;46336;-62
2022/04/11 01:00:02;;;;;;;;;3.25;3.00;;;;;18.91;31.08;100942.88;4976459;28;45410;-61
2022/04/11 01:02:27;;;;;;;;;2.00;2.00;;;;;18.92;30.93;100946.34;4976639;28;45280;-64
2022/04/11 01:04:52;;;;;;;;;2.00;2.00;;;;;18.92;31.21;100943.72;4976547;28;45313;-63
2022/04/11 01:07:21;;;;;;;;;2.00;2.00;;;;;18.91;30.98;100936.75;4975919;28;45428;-63
2022/04/11 01:09:47;;;;;;;;;2.00;2.00;;;;;18.91;30.98;100931.50;4974870;28;45940;-63
2022/04/11 01:12:15;;;;;;;;;3.50;3.50;;;;;18.91;31.10;100926.25;4976075;28;45361;-61
2022/04/11 01:14:40;;;;;;;;;2.00;2.00;;;;;18.90;31.19;100922.78;4976295;28;45445;-59
2022/04/11 01:17:06;;;;;;;;;2.25;2.25;;;;;18.90;31.17;100914.91;4975887;28;45306;-61
2022/04/11 01:19:31;;;;;;;;;2.25;2.25;;;;;18.88;31.19;100908.03;4975858;28;46086;-61
2022/04/11 01:21:56;;;;;;;;;2.00;2.00;;;;;18.89;30.95;100904.47;4976028;28;45372;-61
2022/04/11 01:24:22;;;;;;;;;2.00;2.00;;;;;18.88;31.04;100910.66;4976222;28;45492;-61
2022/04/11 01:26:49;;;;;;;;;2.75;2.75;;;;;18.88;31.67;100905.41;4975561;28;45990;-63
2022/04/11 01:29:16;;;;;;;;;2.00;2.00;;;;;18.87;31.01;100899.28;4975861;28;45871;-62
2022/04/11 01:31:42;;;;;;;;;2.50;2.50;;;;;18.87;31.29;100894.03;4975854;28;45382;-61
2022/04/11 01:34:07;;;;;;;;;3.00;2.00;;;;;18.85;30.98;100894.13;4975543;28;45523;-62
2022/04/11 01:36:32;;;;;;;;;3.75;2.75;;;;;18.85;31.07;100890.66;4975268;28;45440;-58
2022/04/11 01:38:58;;;;;;;;;2.00;2.00;;;;;18.85;31.12;100891.50;4975914;28;45379;-62
2022/04/11 01:41:23;;;;;;;;;2.00;2.00;;;;;18.84;31.31;100874.03;4975738;28;45530;-63
2022/04/11 01:43:49;;;;;;;;;2.75;2.75;;;;;18.84;31.22;100881.91;4975816;28;45450;-63
2022/04/11 01:46:14;;;;;;;;;2.75;2.00;;;;;18.85;31.06;100882.78;4975376;28;46037;-62
2022/04/11 01:48:39;;;;;;;;;2.00;2.00;;;;;18.84;31.30;100879.28;4975491;28;45389;-63
2022/04/11 01:51:05;;;;;;;;;2.75;2.25;;;;;18.84;31.21;100876.66;4975530;28;45758;-62
2022/04/11 01:53:31;;;;;;;;;1.75;1.75;;;;;18.84;31.43;100873.19;4976147;28;45369;-62
2022/04/11 01:55:56;;;;;;;;;3.00;2.75;;;;;18.84;31.15;100871.41;4975350;28;45432;-63
2022/04/11 01:58:22;;;;;;;;;2.75;2.75;;;;;18.83;31.31;100867.06;4975273;28;45414;-64
2022/04/11 02:00:47;;;;;;;;;1.75;1.75;;;;;18.82;31.64;100868.00;4974266;28;45336;-63
2022/04/11 02:03:13;;;;;;;;;2.50;2.50;;;;;18.83;31.48;100867.06;4975740;28;45798;-62
2022/04/11 02:05:40;;;;;;;;;3.00;2.50;;;;;18.85;31.17;100862.59;4975228;28;46072;-62
2022/04/11 02:08:07;;;;;;;;;3.00;3.00;;;;;18.88;31.43;100855.50;4975346;28;45319;-63
2022/04/11 02:10:33;;;;;;;;;1.75;1.75;;;;;18.94;31.16;100857.84;4975618;28;45171;-57
2022/04/11 02:12:59;;;;;;;;;2.00;2.00;;;;;18.98;31.25;100859.41;4975897;28;45503;-59
2022/04/11 02:15:24;;;;;;;;;1.25;1.00;;;;;19.04;31.34;100859.13;4975074;28;45383;-57
2022/04/11 02:17:52;;;;;;;;;2.50;2.00;;;;;19.09;31.43;100851.00;4974904;28;45372;-59
2022/04/11 02:20:18;;;;;;;;;1.00;1.00;;;;;19.16;31.52;100844.53;4975213;28;45430;-60
2022/04/11 02:22:55;;;;;;;;;3.75;1.75;;;;;19.23;31.46;100839.84;4975358;28;45350;-59
2022/04/11 02:25:24;;;;;;;;;2.00;1.00;;;;;19.30;31.09;100838.59;4973756;28;48133;-61
2022/04/11 02:27:50;;;;;;;;;1.00;1.00;;;;;19.35;31.39;100831.31;4975098;28;46020;-63
2022/04/11 02:30:17;;;;;;;;;2.00;2.00;;;;;19.41;31.39;100824.91;4975107;28;45346;-61
2022/04/11 02:32:43;;;;;;;;;2.00;2.00;;;;;19.47;30.97;100835.94;4974085;28;45517;-63
2022/04/11 02:35:09;;;;;;;;;2.00;2.00;;;;;19.51;31.06;100820.03;4976377;28;45364;-61
2022/04/11 02:37:35;;;;;;;;;1.75;1.25;;;;;19.57;30.97;100827.59;4975315;28;45266;-63
2022/04/11 02:40:01;;;;;;;;;1.25;1.00;;;;;19.62;30.79;100828.22;4975374;28;45256;-63
2022/04/11 02:42:28;;;;;;;;;3.00;1.75;;;;;19.65;31.22;100822.81;4975183;28;45383;-64
2022/04/11 02:44:54;;;;;;;;;2.75;1.25;;;;;19.69;31.39;100819.06;4974731;28;45465;-63
2022/04/11 02:47:20;;;;;;;;;2.00;2.00;;;;;19.74;30.83;100822.31;4974525;28;45299;-63
2022/04/11 02:49:46;;;;;;;;;2.25;2.25;;;;;19.77;30.97;100819.53;4975047;28;45402;-64
2022/04/11 02:52:12;;;;;;;;;1.00;1.00;;;;;19.80;30.62;100820.28;4975108;28;45321;-63
2022/04/11 02:54:38;;;;;;;;;2.00;2.00;;;;;19.84;30.63;100803.44;4974634;28;45334;-63
2022/04/11 02:57:05;;;;;;;;;6.00;2.00;;;;;19.88;30.82;100802.38;4975150;28;45446;-62
2022/04/11 02:59:32;;;;;;;;;1.50;0.25;;;;;19.91;30.54;100799.56;4974872;28;45231;-59
2022/04/11 03:01:57;;;;;;;;;2.00;2.00;;;;;19.92;30.78;100788.97;4975069;28;45208;-59
2022/04/11 03:04:23;;;;;;;;;1.00;1.00;;;;;19.96;30.80;100789.66;4974615;28;46106;-63
2022/04/11 03:06:48;;;;;;;;;1.00;1.00;;;;;19.96;30.70;100784.41;4974447;28;45453;-64
2022/04/11 03:09:14;;;;;;;;;1.75;1.00;;;;;19.96;30.38;100779.13;4974756;28;45453;-61
2022/04/11 03:11:39;;;;;;;;;1.00;1.00;;;;;19.96;30.57;100783.53;4974895;28;45440;-59
2022/04/11 03:14:05;;;;;;;;;3.25;2.00;;;;;19.93;30.66;100777.53;4974674;28;46305;-62
2022/04/11 03:16:31;;;;;;;;;2.50;1.00;;;;;19.93;30.54;100768.78;4973168;28;46099;-61
2022/04/11 03:18:57;;;;;;;;;4.25;2.00;;;;;19.92;30.07;100769.69;4974504;28;45417;-61
2022/04/11 03:21:22;;;;;;;;;3.00;3.00;;;;;19.91;30.17;100770.63;4974820;28;45334;-63
2022/04/11 03:23:47;;;;;;;;;2.50;1.00;;;;;19.90;30.08;100766.28;4972972;28;47177;-62
2022/04/11 03:26:13;;;;;;;;;1.50;1.50;;;;;19.89;30.32;100770.72;4973987;28;45457;-63
2022/04/11 03:28:38;;;;;;;;;1.00;1.00;;;;;19.89;30.43;100769.88;4974362;28;45319;-63
2022/04/11 03:31:03;;;;;;;;;1.50;1.00;;;;;19.89;30.10;100777.78;4974888;28;45243;-58
2022/04/11 03:33:29;;;;;;;;;2.00;2.00;;;;;19.89;30.10;100777.78;4972908;28;48213;-60
2022/04/11 03:35:54;;;;;;;;;1.75;1.75;;;;;19.88;30.14;100782.16;4974569;28;45228;-64
2022/04/11 03:38:19;;;;;;;;;2.00;2.00;;;;;19.87;30.32;100769.13;4973029;28;45251;-62
2022/04/11 03:40:45;;;;;;;;;2.00;2.00;;;;;19.88;29.87;100774.28;4974415;28;45498;-63
2022/04/11 03:43:11;;;;;;;;;1.75;1.75;;;;;19.87;30.16;100777.84;4972715;28;48221;-62
2022/04/11 03:45:36;;;;;;;;;1.50;1.50;;;;;19.87;29.75;100777.84;4974180;28;45323;-63
2022/04/11 03:48:02;;;;;;;;;1.75;1.75;;;;;19.87;29.86;100758.59;4974097;28;45380;-62
2022/04/11 03:50:27;;;;;;;;;1.00;1.00;;;;;19.88;29.75;100757.66;4974260;28;45560;-58
2022/04/11 03:52:53;;;;;;;;;2.00;2.00;;;;;19.87;29.63;100756.81;4973866;28;45557;-64
2022/04/11 03:55:18;;;;;;;;;2.00;1.00;;;;;19.88;29.65;100755.03;4973908;28;45243;-64
2022/04/11 03:57:44;;;;;;;;;1.50;1.50;;;;;19.87;30.10;100751.53;4974111;28;45401;-64
2022/04/11 04:00:10;;;;;;;;;3.50;3.50;;;;;19.87;30.01;100742.81;4977414;28;45546;-63
2022/04/11 04:02:35;;;;;;;;;4.50;1.75;;;;;19.86;29.81;100741.13;4976969;28;47474;-63
2022/04/11 04:05:01;;;;;;;;;2.00;2.00;;;;;19.83;29.97;100735.97;4975522;28;45358;-63
2022/04/11 04:07:26;;;;;;;;;3.50;2.25;;;;;19.84;29.63;100722.75;4976787;28;45408;-62
2022/04/11 04:09:52;;;;;;;;;1.50;1.00;;;;;19.82;29.95;100729.00;4977024;28;45414;-65
2022/04/11 04:12:21;;;;;;;;;1.00;1.00;;;;;19.81;29.69;100722.06;4976537;28;45387;-63
2022/04/11 04:14:47;;;;;;;;;2.50;2.50;;;;;19.78;29.36;100729.19;4976625;28;45846;-64
2022/04/11 04:17:13;;;;;;;;;2.00;1.50;;;;;19.77;29.48;100727.50;4975547;28;45256;-64
2022/04/11 04:19:38;;;;;;;;;2.50;1.50;;;;;19.75;29.75;100724.09;4976942;28;45271;-63
2022/04/11 04:22:04;;;;;;;;;2.00;2.00;;;;;19.74;29.35;100724.16;4976278;28;50764;-65
2022/04/11 04:24:32;;;;;;;;;4.00;3.00;;;;;19.70;29.54;100720.84;4976463;28;45306;-65
2022/04/11 04:26:57;;;;;;;;;1.00;1.00;;;;;19.69;29.57;100724.41;4976430;28;45331;-65
2022/04/11 04:29:22;;;;;;;;;1.25;1.25;;;;;19.68;29.97;100722.72;4976552;28;45340;-64
2022/04/11 04:31:49;;;;;;;;;1.00;1.00;;;;;19.67;29.72;100718.41;4975038;28;47316;-64
2022/04/11 04:34:15;;;;;;;;;1.00;1.00;;;;;19.66;29.92;100706.19;4976367;28;45268;-64
2022/04/11 04:36:40;;;;;;;;;2.00;2.00;;;;;19.66;29.65;100707.97;4976812;28;45521;-63
2022/04/11 04:39:05;;;;;;;;;2.00;2.00;;;;;19.66;30.08;100708.81;4976623;28;45478;-64
2022/04/11 04:41:31;;;;;;;;;2.50;2.25;;;;;19.64;29.86;100697.53;4976202;28;46696;-64
2022/04/11 04:43:56;;;;;;;;;2.00;2.00;;;;;19.64;29.97;100702.78;4976370;28;45225;-63
2022/04/11 04:46:21;;;;;;;;;1.00;1.00;;;;;19.62;30.02;100696.75;4976280;28;45350;-64
2022/04/11 04:48:47;;;;;;;;;1.00;1.00;;;;;19.62;29.92;100702.03;4976465;28;45241;-65
2022/04/11 04:51:12;;;;;;;;;1.00;1.00;;;;;19.61;29.89;100709.06;4976212;28;45278;-61
2022/04/11 04:53:38;;;;;;;;;1.00;1.00;;;;;19.60;30.26;100714.41;4976416;28;45276;-64
2022/04/11 04:56:03;;;;;;;;;2.00;1.00;;;;;19.58;29.98;100718.88;4976222;28;45228;-64
2022/04/11 04:58:29;;;;;;;;;2.50;2.00;;;;;19.57;30.11;100717.19;4976316;28;45524;-64
2022/04/11 05:00:54;;;;;;;;;1.50;1.50;;;;;19.55;30.12;100726.94;4975996;28;46327;-62
2022/04/11 05:03:19;;;;;;;;;0.75;0.75;;;;;19.53;29.83;100728.81;4975981;28;45329;-64
2022/04/11 05:05:45;;;;;;;;;1.00;1.00;;;;;19.52;30.15;100727.94;4976120;28;45402;-63
2022/04/11 05:08:10;;;;;;;;;2.75;1.75;;;;;19.50;29.87;100729.81;4976600;28;45339;-65
2022/04/11 05:10:35;;;;;;;;;2.00;2.00;;;;;19.49;29.83;100736.00;4974629;28;46083;-63
2022/04/11 05:13:01;;;;;;;;;1.00;1.00;;;;;19.49;29.82;100729.88;4975759;28;45493;-62
2022/04/11 05:15:26;;;;;;;;;1.00;1.00;;;;;19.48;30.22;100729.03;4974677;28;45707;-64
2022/04/11 05:17:53;;;;;;;;;3.00;1.00;;;;;19.46;30.02;100715.13;4975985;28;45539;-63
2022/04/11 05:20:18;;;;;;;;;2.25;2.25;;;;;19.44;29.92;100723.09;4975648;28;47005;-65
2022/04/11 05:22:44;;;;;;;;;2.00;2.00;;;;;19.45;30.21;100721.31;4975726;28;45583;-60
2022/04/11 05:25:09;;;;;;;;;2.75;1.25;;;;;19.42;30.24;100716.22;4976266;28;45212;-63
2022/04/11 05:27:35;;;;;;;;;1.00;1.00;;;;;19.39;29.91;100711.97;4975910;28;45585;-61
2022/04/11 05:30:00;;;;;;;;;3.00;1.50;;;;;19.39;30.05;100713.75;4975599;28;45331;-65
2022/04/11 05:32:26;;;;;;;;;1.25;1.25;;;;;19.38;29.79;100710.28;4974393;28;46128;-64
2022/04/11 05:34:51;;;;;;;;;1.00;1.00;;;;;19.38;29.89;100714.69;4975770;28;45310;-63
2022/04/11 05:37:16;;;;;;;;;2.25;1.00;;;;;19.35;29.80;100710.41;4975790;28;45322;-64
2022/04/11 05:39:42;;;;;;;;;0.00;0.00;;;;;19.33;29.82;100704.41;4975741;28;46421;-64
2022/04/11 05:42:08;;;;;;;;;1.00;1.00;;;;;19.33;30.08;100704.41;4975523;28;45288;-62
2022/04/11 05:44:34;;;;;;;;;2.50;2.00;;;;;19.31;30.27;100708.91;4975644;28;45506;-61
2022/04/11 05:46:59;;;;;;;;;2.00;2.00;;;;;19.30;29.94;100713.28;4975570;28;45387;-61
2022/04/11 05:49:24;;;;;;;;;2.00;2.00;;;;;19.26;30.25;100703.88;4975379;28;45442;-59
2022/04/11 05:51:50;;;;;;;;;3.00;2.00;;;;;19.29;29.85;100710.75;4975453;28;45425;-60
2022/04/11 05:54:15;;;;;;;;;2.00;2.00;;;;;19.28;30.25;100720.44;4975397;28;45488;-61
2022/04/11 05:56:41;;;;;;;;;1.00;1.00;;;;;19.27;29.86;100717.88;4975951;28;45331;-61
2022/04/11 05:59:08;;;;;;;;;1.00;1.00;;;;;19.26;29.72;100714.41;4975327;28;46266;-59
2022/04/11 06:01:37;;;;;;;;;1.00;1.00;;;;;19.26;29.85;100729.31;4973989;28;45709;-63
2022/04/11 06:04:03;;;;;;;;;2.25;2.00;;;;;19.25;30.38;100724.97;4975482;28;45514;-65
2022/04/11 06:06:29;;;;;;;;;1.25;1.25;;;;;19.25;30.30;100730.22;4975571;28;45523;-64
2022/04/11 06:08:54;;;;;;;;;1.25;1.25;;;;;19.23;30.38;100714.56;4975303;28;46107;-65
2022/04/11 06:11:19;;;;;;;;;2.00;2.00;;;;;19.24;30.03;100718.00;4975194;28;45394;-64
2022/04/11 06:13:45;;;;;;;;;1.00;1.00;;;;;19.22;29.95;100720.72;4975673;28;45481;-61
2022/04/11 06:16:14;;;;;;;;;2.75;2.00;;;;;19.23;30.41;100721.59;4975751;28;45410;-59
2022/04/11 06:18:39;;;;;;;;;1.25;1.25;;;;;19.22;30.35;100717.28;4975139;28;45208;-59
2022/04/11 06:21:05;;;;;;;;;3.00;2.00;;;;;19.22;30.08;100717.28;4974636;28;45379;-59
2022/04/11 06:23:31;;;;;;;;;2.00;2.00;;;;;19.21;30.28;100724.28;4975243;28;45348;-62
2022/04/11 06:25:56;;;;;;;;;3.75;2.00;;;;;19.21;30.01;100721.66;4975262;28;45180;-60
2022/04/11 06:28:22;;;;;;;;;4.00;2.00;;;;;19.20;30.06;100722.59;4974928;28;45721;-58
2022/04/11 06:30:47;;;;;;;;;2.00;1.00;;;;;19.21;30.18;100723.44;4974999;27;45277;-61
2022/04/11 06:33:13;;;;;;;;;2.00;2.00;;;;;19.21;30.02;100718.19;4975474;28;45363;-59
2022/04/11 06:35:38;;;;;;;;;1.00;1.00;;;;;19.21;30.19;100712.94;4975156;28;45485;-57
2022/04/11 06:38:04;;;;;;;;;1.00;1.00;;;;;19.20;30.25;100706.81;4974899;28;45604;-60
2022/04/11 06:40:29;;;;;;;;;4.25;2.00;;;;;19.19;30.07;100715.63;4974820;28;45560;-61
2022/04/11 06:42:54;;;;;;;;;2.00;1.00;;;;;19.19;30.27;100699.88;4973495;28;45396;-60
2022/04/11 06:45:20;;;;;;;;;2.00;2.00;;;;;19.19;30.33;100686.72;4975085;28;45407;-62
2022/04/11 06:47:47;;;;;;;;;2.00;2.00;;;;;19.19;30.26;100694.59;4974829;28;45252;-59
2022/04/11 06:50:13;;;;;;;;;2.00;2.00;;;;;19.19;30.27;100694.59;4975066;28;45431;-61
2022/04/11 06:52:38;;;;;;;;;2.00;2.00;;;;;19.18;30.37;100685.06;4974912;28;45469;-61
2022/04/11 06:55:05;;;;;;;;;2.25;1.00;;;;;19.19;30.12;100684.09;4974907;28;45247;-64
2022/04/11 06:57:30;;;;;;;;;1.50;1.50;;;;;19.17;30.17;100678.09;4974426;28;46666;-62
2022/04/11 06:59:55;;;;;;;;;1.75;1.75;;;;;19.17;30.40;100678.09;4974593;28;45310;-63
2022/04/11 07:02:21;;;;;;;;;3.00;2.00;;;;;19.18;30.26;100671.91;4974731;28;45331;-62
2022/04/11 07:04:47;;;;;;;;;1.25;1.25;;;;;19.19;30.09;100672.75;4975135;28;45397;-64
2022/04/11 07:07:12;;;;;;;;;2.00;2.00;;;;;19.19;30.43;100678.00;4974281;28;45463;-66
2022/04/11 07:09:37;;;;;;;;;1.00;1.00;;;;;19.20;30.28;100675.28;4973053;28;45766;-66
2022/04/11 07:12:03;;;;;;;;;5.75;2.50;;;;;19.20;30.27;100669.19;4976009;28;45736;-67
2022/04/11 07:14:29;;;;;;;;;2.00;2.00;;;;;19.21;30.55;100655.13;4973227;28;45503;-59
2022/04/11 07:16:54;;;;;;;;;2.00;2.00;;;;;19.23;30.51;100659.38;4972927;27;48553;-63
2022/04/11 07:19:20;;;;;;;;;2.00;2.00;;;;;19.24;30.75;100655.81;4974267;28;45461;-63
2022/04/11 07:21:46;;;;;;;;;4.00;2.00;;;;;19.25;30.74;100652.25;4974658;28;45465;-57
2022/04/11 07:24:12;;;;;;;;;2.00;2.00;;;;;19.26;30.71;100647.84;4974332;28;45279;-60
2022/04/11 07:26:40;;;;;;;;;3.25;3.25;;;;;19.27;30.73;100646.91;4974250;28;45401;-62
2022/04/11 07:29:05;;;;;;;;;1.75;1.75;;;;;19.27;30.67;100641.66;4974186;28;45402;-58
2022/04/11 07:31:31;;;;;;;;;3.00;3.00;;;;;19.29;30.44;100645.06;4974277;28;45257;-60
2022/04/11 07:33:56;;;;;;;;;4.50;1.75;;;;;19.29;30.75;100647.69;4973086;28;45717;-62
2022/04/11 07:36:21;;;;;;;;;2.75;2.75;;;;;19.29;30.85;100645.91;4973834;28;46216;-61
2022/04/11 07:38:47;;;;;;;;;3.00;1.25;;;;;19.32;30.43;100650.16;4973937;28;47212;-59
2022/04/11 07:41:12;;;;;;;;;1.50;1.50;;;;;19.31;30.70;100644.03;4974107;28;45319;-64
2022/04/11 07:43:38;;;;;;;;;1.50;1.50;;;;;19.32;30.83;100644.91;4974079;28;45184;-60
2022/04/11 07:46:05;;;;;;;;;1.75;1.75;;;;;19.33;31.04;100640.50;4973699;28;46030;-63
2022/04/11 07:48:33;;;;;;;;;3.50;2.00;;;;;19.33;30.50;100641.34;4974003;28;46384;-62
2022/04/11 07:50:59;;;;;;;;;1.00;1.00;;;;;19.35;30.69;100646.53;4974001;28;45477;-64
2022/04/11 07:53:24;;;;;;;;;3.00;3.00;;;;;19.36;30.82;100649.06;4973951;28;45586;-61
2022/04/11 07:55:50;;;;;;;;;1.00;1.00;;;;;19.36;30.72;100637.69;4973903;28;45237;-63
2022/04/11 07:58:16;;;;;;;;;3.25;2.00;;;;;19.37;30.81;100634.16;4973759;28;45398;-60
2022/04/11 08:00:42;;;;;;;;;2.50;2.50;;;;;19.38;30.56;100627.97;4972524;28;45247;-63
2022/04/11 08:03:08;;;;;;;;;2.00;2.00;;;;;19.38;30.49;100634.06;4973905;28;45259;-58
2022/04/11 08:05:33;;;;;;;;;3.00;1.50;;;;;19.39;30.69;100632.28;4973438;28;45260;-62
2022/04/11 08:07:59;;;;;;;;;2.50;1.00;;;;;19.40;30.87;100629.56;4973384;28;45238;-64
2022/04/11 08:10:25;;;;;;;;;1.50;1.50;;;;;19.42;30.91;100625.09;4973661;28;45419;-65
2022/04/11 08:12:55;;;;;;;;;3.00;2.00;;;;;19.43;30.95;100624.16;4974037;28;45371;-60
2022/04/11 08:15:22;;;;;;;;;2.00;2.00;;;;;19.44;30.79;100619.75;4973471;28;47057;-58
2022/04/11 08:17:47;;;;;;;;;2.00;2.00;;;;;19.43;30.62;100608.38;4972086;28;45333;-61
2022/04/11 08:20:13;;;;;;;;;2.50;2.00;;;;;19.44;30.98;100623.22;4972000;28;45344;-60
2022/04/11 08:22:38;;;;;;;;;2.00;2.00;;;;;19.45;30.89;100617.03;4972298;28;45229;-62
2022/04/11 08:25:04;;;;;;;;;2.00;2.00;;;;;19.45;30.69;100622.31;4973268;28;45450;-59
2022/04/11 08:27:29;;;;;;;;;2.00;2.00;;;;;19.46;30.82;100623.97;4973020;28;45485;-60
2022/04/11 08:29:55;;;;;;;;;3.00;3.00;;;;;19.47;30.55;100633.56;4973360;28;45464;-64
2022/04/11 08:32:21;;;;;;;;;2.75;2.75;;;;;19.47;30.63;100612.53;4973681;28;45515;-65
2022/04/11 08:34:46;;;;;;;;;2.00;2.00;;;;;19.46;30.63;100618.72;4973134;28;46556;-58
2022/04/11 08:37:12;;;;;;;;;2.00;2.00;;;;;19.49;31.04;100612.47;4973059;28;45430;-64
2022/04/11 08:39:38;;;;;;;;;2.00;2.00;;;;;19.48;30.59;100605.50;4973240;28;46053;-63
2022/04/11 08:42:04;;;;;;;;;2.00;2.00;;;;;19.48;30.94;100608.13;4973186;28;45544;-64
2022/04/11 08:44:32;;;;;;;;;2.00;2.00;;;;;19.49;30.65;100607.22;4973983;28;45377;-63
2022/04/11 08:47:02;;;;;;;;;1.50;1.50;;;;;19.50;30.68;100608.91;4975938;28;45307;-62
2022/04/11 08:49:31;;;;;;;;;2.00;2.00;;;;;19.51;30.64;100601.84;4974787;28;45344;-62
2022/04/11 08:51:57;;;;;;;;;3.00;2.00;;;;;19.51;30.90;100594.84;4976214;28;45614;-60
2022/04/11 08:54:23;;;;;;;;;2.00;2.00;;;;;19.51;30.81;100579.06;4976161;28;46533;-61
2022/04/11 08:56:48;;;;;;;;;2.00;2.00;;;;;19.51;30.70;100576.44;4958340;28;45631;-60
2022/04/11 08:59:14;;;;;;;;;2.00;2.00;;;;;19.53;30.76;100576.34;4976060;28;45354;-64
2022/04/11 09:01:39;;;;;;;;;3.25;2.00;;;;;19.53;30.59;100577.16;4976186;28;45339;-62
2022/04/11 09:04:08;;;;;;;;;2.00;2.00;;;;;19.53;30.68;100576.34;4975566;28;46560;-62
2022/04/11 09:06:35;;;;;;;;;1.00;1.00;;;;;19.52;30.73;100564.97;4975804;28;45281;-60
2022/04/11 09:09:02;;;;;;;;;3.00;3.00;;;;;19.55;30.86;100563.97;4975909;28;45291;-58
2022/04/11 09:11:31;;;;;;;;;1.00;1.00;;;;;19.55;30.66;100553.44;4976128;28;45366;-62
2022/04/11 09:14:00;;;;;;;;;2.00;2.00;;;;;19.53;30.34;100550.88;4975989;28;46196;-66
2022/04/11 09:16:26;;;;;;;;;1.00;1.00;;;;;19.53;30.54;100555.31;4975966;28;45328;-65
2022/04/11 09:18:53;;;;;;;;;3.75;3.00;;;;;19.53;30.92;100557.94;4976415;28;45240;-67
2022/04/11 09:21:21;;;;;;;;;2.00;2.00;;;;;19.53;31.00;100561.41;4976753;28;45422;-61
2022/04/11 09:23:47;;;;;;;;;2.00;2.00;;;;;19.53;30.79;100564.03;4974679;28;45504;-61
2022/04/11 09:26:21;;;;;;;;;2.25;2.25;;;;;19.60;30.90;100561.91;4975974;28;45838;-61
2022/04/11 09:29:00;;;;;;;;;3.00;2.00;;;;;19.66;30.92;100560.72;4975975;28;45316;-63
2022/04/11 09:31:26;;;;;;;;;1.00;1.00;;;;;19.71;31.02;100549.00;4976137;28;45592;-60
2022/04/11 09:33:51;;;;;;;;;1.00;1.00;;;;;19.78;30.64;100544.25;4974493;28;46269;-59
2022/04/11 09:36:17;;;;;;;;;2.00;2.00;;;;;19.83;30.57;100544.00;4975061;28;57457;-67
2022/04/11 09:38:42;;;;;;;;;3.75;3.00;;;;;19.86;29.73;100535.97;4974293;28;45654;-66
2022/04/11 09:41:07;;;;;;;;;4.00;2.25;;;;;19.90;30.15;100537.47;4975484;27;45502;-61
2022/04/11 09:43:34;;;;;;;;;3.00;3.00;;;;;19.95;29.67;100535.44;4974152;28;45466;-66
2022/04/11 09:46:02;;;;;;;;;3.00;3.00;;;;;19.97;29.31;100536.19;4975187;28;45406;-65
2022/04/11 09:48:33;;;;;;;;;3.00;3.00;;;;;19.98;29.25;100535.25;4975385;28;45301;-63
2022/04/11 09:50:59;;;;;;;;;3.25;3.25;;;;;19.99;28.76;100534.34;4975565;28;45322;-66
2022/04/11 09:53:35;;;;;;;;;3.00;3.00;;;;;20.00;28.95;100529.91;4975479;28;47433;-65
2022/04/11 09:56:02;;;;;;;;;3.25;2.00;;;;;20.01;28.45;100524.53;4974383;28;45443;-65
2022/04/11 09:58:28;;;;;;;;;3.50;3.50;;;;;19.99;28.75;100522.94;4975346;28;45424;-61
2022/04/11 10:00:53;;;;;;;;;6.00;5.00;;;;;19.98;28.47;100522.13;4975897;28;45490;-66
2022/04/11 10:03:23;;;;;;;;;4.00;4.00;;;;;19.97;28.48;100520.41;4975492;28;45930;-65
2022/04/11 10:05:49;;;;;;;;;5.25;3.25;;;;;19.98;28.37;100514.22;4975011;28;45323;-63
2022/04/11 10:08:15;;;;;;;;;3.50;3.25;;;;;19.97;28.27;100517.78;4975226;28;45450;-67
2022/04/11 10:10:41;;;;;;;;;4.75;4.75;;;;;19.98;28.41;100513.34;4975272;28;45576;-67
2022/04/11 10:13:14;;;;;;;;;1.50;1.50;;;;;19.96;28.17;100510.81;4973661;28;46291;-64
2022/04/11 10:15:42;;;;;;;;;3.50;2.00;;;;;19.97;28.31;100515.16;4974905;28;45858;-62
2022/04/11 10:18:10;;;;;;;;;3.00;3.00;;;;;19.99;28.31;100520.31;4975071;28;45453;-66
2022/04/11 10:20:38;;;;;;;;;3.75;3.75;;;;;19.99;28.47;100515.91;4975266;28;45475;-62
2022/04/11 10:23:13;;;;;;;;;4.00;4.00;;;;;19.98;28.12;100516.84;4974864;28;46919;-66
2022/04/11 10:25:45;;;;;;;;;3.00;2.00;;;;;19.95;28.28;100513.56;4975002;28;46016;-64
2022/04/11 10:28:19;;;;;;;;;3.50;2.75;;;;;19.93;28.31;100511.84;4975192;28;45418;-65
2022/04/11 10:31:02;;;;;;;;;2.75;2.75;;;;;19.92;28.09;100512.78;4975305;28;45468;-62
2022/04/11 10:33:49;;;;;;;;;3.75;3.75;;;;;19.95;28.16;100513.56;4975199;28;47153;-64
2022/04/11 10:36:30;;;;;;;;;3.00;3.00;;;;;19.92;28.48;100498.78;4974924;28;45837;-62
2022/04/11 10:39:17;;;;;;;;;3.00;3.00;;;;;19.89;28.14;100498.97;4975240;28;45351;-62
2022/04/11 10:41:54;;;;;;;;;3.00;3.00;;;;;19.85;28.37;100486.91;4975037;28;45327;-62
2022/04/11 10:44:51;;;;;;;;;4.50;3.00;;;;;19.81;27.88;100483.59;4974675;28;46149;-57
2022/04/11 10:47:16;;;;;;;;;4.25;4.25;;;;;19.81;28.11;100485.38;4973920;28;45914;-60
2022/04/11 10:49:48;;;;;;;;;4.25;2.75;;;;;19.76;28.12;100478.63;4974789;28;45333;-61
2022/04/11 10:52:35;;;;;;;;;4.75;4.00;;;;;19.74;28.25;100480.47;4975014;28;45453;-61
2022/04/11 10:55:17;;;;;;;;;3.00;3.00;;;;;19.72;28.27;100469.19;4973181;28;48336;-59
2022/04/11 10:57:43;;;;;;;;;3.00;3.00;;;;;19.71;28.64;100464.88;4974617;28;45944;-63
2022/04/11 11:00:10;;;;;;;;;5.00;4.00;;;;;19.74;28.17;100479.63;4974720;28;45378;-57
2022/04/11 11:02:56;;;;;;;;;3.00;3.00;;;;;19.75;28.71;100470.78;4974780;28;45259;-62
2022/04/11 11:05:31;;;;;;;;;4.00;3.25;;;;;19.75;28.48;100457.66;4974399;28;46652;-62
2022/04/11 11:08:11;;;;;;;;;3.00;3.00;;;;;19.76;28.55;100459.34;4973346;28;45900;-61
2022/04/11 11:10:57;;;;;;;;;5.50;4.00;;;;;19.73;28.47;100441.97;4974493;28;45415;-60
2022/04/11 11:13:35;;;;;;;;;3.75;2.00;;;;;19.73;28.14;100443.78;4973370;28;45270;-60
2022/04/11 11:16:20;;;;;;;;;6.25;3.00;;;;;19.73;28.73;100457.75;4974400;28;45508;-59
2022/04/11 11:18:46;;;;;;;;;6.00;4.25;;;;;19.74;28.48;100453.31;4973969;28;45331;-63
2022/04/11 11:21:22;;;;;;;;;4.00;3.00;;;;;19.73;28.39;100457.75;4974336;28;45254;-65
2022/04/11 11:24:12;;;;;;;;;5.00;4.00;;;;;19.73;28.78;100463.00;4974465;28;45315;-63